createdAt,value
2022-08-22T00:03:09.242Z,99976.59
2022-08-22T00:03:54.168Z,99993.98
2022-08-22T00:09:08.572Z,99995.14
2022-08-22T00:14:24.778Z,99993.59
2022-08-22T00:19:42.079Z,99996.64
2022-08-22T00:25:03.390Z,99996.54
2022-08-22T00:30:15.886Z,100000.83
2022-08-22T00:35:34.139Z,100008.54
2022-08-22T00:40:58.013Z,100009.56
2022-08-22T00:46:32.883Z,100014.29
2022-08-22T00:51:54.292Z,100014.14
2022-08-22T00:57:02.796Z,100022.19
2022-08-22T01:02:32.157Z,100024.41
2022-08-22T01:08:04.331Z,100026.06
2022-08-22T01:13:36.876Z,100027.97
2022-08-22T01:19:07.277Z,100028.38
2022-08-22T01:25:08.432Z,100030.77
2022-08-22T01:30:32.994Z,100030.66
2022-08-22T01:35:44.985Z,100028.67
2022-08-22T01:40:54.237Z,100028.08
2022-08-22T01:45:57.100Z,100026.30
2022-08-22T01:51:13.788Z,100028.86
2022-08-22T01:56:20.099Z,100032.86
2022-08-22T02:01:33.924Z,100032.26
2022-08-22T02:06:42.998Z,100034.64
2022-08-22T02:12:21.370Z,100035.05
2022-08-22T02:17:48.848Z,100035.15
2022-08-22T02:22:59.632Z,100038.26
2022-08-22T02:28:18.664Z,100037.10
2022-08-22T02:33:31.837Z,100038.80
2022-08-22T02:39:00.913Z,100041.13
2022-08-22T02:44:03.552Z,100036.34
2022-08-22T02:49:17.002Z,100034.02
2022-08-22T02:54:28.109Z,100037.33
2022-08-22T03:00:31.819Z,100039.07
2022-08-22T03:05:38.620Z,100040.84
2022-08-22T03:10:47.714Z,100044.35
2022-08-22T03:16:03.890Z,100043.83
2022-08-22T03:21:32.129Z,100049.98
2022-08-22T03:26:56.853Z,100055.33
2022-08-22T03:32:20.537Z,100055.98
2022-08-22T03:37:40.714Z,100058.07
2022-08-22T03:43:02.133Z,100063.07
2022-08-22T03:48:42.452Z,100064.05
2022-08-22T03:54:00.128Z,100068.43
2022-08-22T03:59:11.341Z,100067.39
2022-08-22T04:04:22.792Z,100058.98
2022-08-22T04:09:31.257Z,100058.02
2022-08-22T04:15:10.893Z,100060.79
2022-08-22T04:20:44.565Z,100062.13
2022-08-22T04:25:55.324Z,100065.73
2022-08-22T04:31:06.310Z,100073.40
2022-08-22T04:36:20.259Z,100079.20
2022-08-22T04:41:31.256Z,100079.99
2022-08-22T04:46:39.476Z,100084.84
2022-08-22T04:51:47.158Z,100083.91
2022-08-22T04:56:52.524Z,100085.72
2022-08-22T05:01:59.358Z,100088.92
2022-08-22T05:07:19.836Z,100093.50
2022-08-22T05:12:38.441Z,100095.10
2022-08-22T05:17:44.321Z,100099.23
2022-08-22T05:22:52.968Z,100109.33
2022-08-22T05:28:12.207Z,100109.12
2022-08-22T05:33:24.440Z,100109.10
2022-08-22T05:38:34.917Z,100108.33
2022-08-22T05:43:42.330Z,100113.46
2022-08-22T05:48:57.594Z,100115.50
2022-08-22T05:54:14.632Z,100115.77
2022-08-22T05:59:17.456Z,100111.98
2022-08-22T06:04:35.495Z,100114.72
2022-08-22T06:09:47.073Z,100118.66
2022-08-22T06:15:02.795Z,100115.94
2022-08-22T06:20:21.430Z,100118.73
2022-08-22T06:25:30.142Z,100125.16
2022-08-22T06:30:35.794Z,100126.58
2022-08-22T06:36:06.039Z,100126.31
2022-08-22T06:41:11.093Z,100127.53
2022-08-22T06:46:16.543Z,100128.73
2022-08-22T06:51:20.880Z,100126.23
2022-08-22T06:56:33.949Z,100131.58
2022-08-22T07:01:45.647Z,100138.98
2022-08-22T07:06:51.477Z,100142.13
2022-08-22T07:11:59.342Z,100142.88
2022-08-22T07:17:07.678Z,100145.34
2022-08-22T07:22:15.105Z,100142.67
2022-08-22T07:27:45.874Z,100147.25
2022-08-22T07:33:25.323Z,100146.71
2022-08-22T07:38:42.770Z,100148.48
2022-08-22T07:43:49.001Z,100153.12
2022-08-22T07:49:09.444Z,100154.39
2022-08-22T07:54:28.021Z,100161.09
2022-08-22T07:59:35.422Z,100159.15
2022-08-22T08:04:40.728Z,100160.92
2022-08-22T08:09:54.347Z,100162.07
2022-08-22T08:14:58.402Z,100164.66
2022-08-22T08:20:14.682Z,100163.73
2022-08-22T08:25:25.883Z,100161.73
2022-08-22T08:30:48.481Z,100162.02
2022-08-22T08:36:03.199Z,100160.27
2022-08-22T08:41:41.070Z,100157.41
2022-08-22T08:46:59.134Z,100159.81
2022-08-22T08:52:21.102Z,100158.99
2022-08-22T08:58:10.290Z,100156.33
2022-08-22T09:03:32.622Z,100158.80
2022-08-22T09:09:01.650Z,100150.92
2022-08-22T09:14:32.244Z,100148.91
2022-08-22T09:20:15.489Z,100144.19
2022-08-22T09:25:42.274Z,100142.80
2022-08-22T09:31:16.935Z,100147.27
2022-08-22T09:36:38.510Z,100149.92
2022-08-22T09:41:44.999Z,100151.37
2022-08-22T09:47:25.699Z,100156.98
2022-08-22T09:52:47.110Z,100154.36
2022-08-22T09:58:01.829Z,100158.35
2022-08-22T10:03:14.641Z,100154.34
2022-08-22T10:08:36.999Z,100154.54
2022-08-22T10:14:00.516Z,100151.44
2022-08-22T10:19:18.082Z,100148.77
2022-08-22T10:24:34.148Z,100159.21
2022-08-22T10:30:10.854Z,100163.11
2022-08-22T10:35:33.815Z,100162.38
2022-08-22T10:41:02.629Z,100160.88
2022-08-22T10:46:19.101Z,100165.37
2022-08-22T10:51:44.666Z,100162.83
2022-08-22T10:57:00.627Z,100167.80
2022-08-22T11:02:09.866Z,100168.33
2022-08-22T11:07:29.885Z,100162.94
2022-08-22T11:12:50.614Z,100159.77
2022-08-22T11:18:24.353Z,100160.50
2022-08-22T11:23:37.560Z,100159.28
2022-08-22T11:29:13.279Z,100163.48
2022-08-22T11:34:44.911Z,100165.70
2022-08-22T11:40:20.370Z,100167.69
2022-08-22T11:45:35.861Z,100166.70
2022-08-22T11:50:55.793Z,100170.92
2022-08-22T11:56:22.679Z,100167.44
2022-08-22T12:01:42.203Z,100167.23
2022-08-22T12:07:07.300Z,100164.89
2022-08-22T12:12:38.567Z,100165.27
2022-08-22T12:18:01.345Z,100164.88
2022-08-22T12:23:16.873Z,100162.11
2022-08-22T12:28:43.836Z,100160.69
2022-08-22T12:33:58.687Z,100159.38
2022-08-22T12:39:41.075Z,100157.34
2022-08-22T12:45:18.158Z,100156.33
2022-08-22T12:50:31.360Z,100152.71
2022-08-22T12:55:55.605Z,100153.57
2022-08-22T13:01:05.010Z,100149.36
2022-08-22T13:06:34.033Z,100150.05
2022-08-22T13:11:43.647Z,100143.39
2022-08-22T13:16:51.333Z,100141.42
2022-08-22T13:22:01.510Z,100139.67
2022-08-22T13:27:15.479Z,100142.17
2022-08-22T13:32:28.087Z,100146.21
2022-08-22T13:37:43.407Z,100134.29
2022-08-22T13:42:50.253Z,100136.61
2022-08-22T13:48:03.699Z,100131.97
2022-08-22T13:53:28.445Z,100137.02
2022-08-22T13:58:52.878Z,100144.15
2022-08-22T14:04:28.813Z,100142.88
2022-08-22T14:09:41.057Z,100128.84
2022-08-22T14:14:49.246Z,100124.20
2022-08-22T14:20:03.035Z,100123.50
2022-08-22T14:25:21.311Z,100113.89
2022-08-22T14:30:39.355Z,100114.59
2022-08-22T14:35:52.648Z,100110.10
2022-08-22T14:41:06.316Z,100105.83
2022-08-22T14:46:14.716Z,100108.04
2022-08-22T14:51:23.481Z,100113.98
2022-08-22T14:56:29.842Z,100114.10
2022-08-22T15:01:37.336Z,100121.77
2022-08-22T15:06:52.715Z,100116.52
2022-08-22T15:11:56.032Z,100118.16
2022-08-22T15:17:02.053Z,100113.51
2022-08-22T15:22:15.158Z,100109.81
2022-08-22T15:27:20.509Z,100106.21
2022-08-22T15:32:29.821Z,100105.27
2022-08-22T15:37:52.207Z,100109.17
2022-08-22T15:42:58.326Z,100114.56
2022-08-22T15:48:05.561Z,100114.89
2022-08-22T15:53:18.902Z,100116.98
2022-08-22T15:58:24.921Z,100113.40
2022-08-22T16:03:31.940Z,100111.77
2022-08-22T16:08:46.961Z,100107.39
2022-08-22T16:14:21.760Z,100102.20
2022-08-22T16:19:27.823Z,100096.86
2022-08-22T16:24:33.863Z,100095.23
2022-08-22T16:29:41.878Z,100093.55
2022-08-22T16:34:46.056Z,100101.26
2022-08-22T16:39:58.632Z,100105.68
2022-08-22T16:45:13.443Z,100111.97
2022-08-22T16:50:16.577Z,100118.90
2022-08-22T16:55:28.617Z,100121.33
2022-08-22T17:00:34.313Z,100121.87
2022-08-22T17:06:32.591Z,100126.73
2022-08-22T17:12:03.308Z,100124.04
2022-08-22T17:17:40.789Z,100134.14
2022-08-22T17:23:03.231Z,100143.63
2022-08-22T17:28:24.312Z,100145.58
2022-08-22T17:33:52.898Z,100143.05
2022-08-22T17:39:29.123Z,100143.14
2022-08-22T17:44:43.403Z,100151.59
2022-08-22T17:49:55.139Z,100151.77
2022-08-22T17:55:05.589Z,100154.15
2022-08-22T18:00:33.797Z,100154.64
2022-08-22T18:05:47.000Z,100160.83
2022-08-22T18:11:02.079Z,100176.15
2022-08-22T18:16:08.310Z,100182.08
2022-08-22T18:21:27.088Z,100183.13
2022-08-22T18:26:42.073Z,100190.17
2022-08-22T18:32:00.624Z,100195.77
2022-08-22T18:37:24.639Z,100203.95
2022-08-22T18:42:47.797Z,100201.66
2022-08-22T18:47:57.224Z,100200.16
2022-08-22T18:53:00.809Z,100199.88
2022-08-22T18:58:22.267Z,100201.11
2022-08-22T19:03:39.929Z,100198.98
2022-08-22T19:08:59.670Z,100197.66
2022-08-22T19:14:35.820Z,100196.02
2022-08-22T19:20:35.102Z,100194.41
2022-08-22T19:26:16.387Z,100188.54
2022-08-22T19:31:41.952Z,100184.46
2022-08-22T19:36:46.335Z,100189.13
2022-08-22T19:41:54.382Z,100194.63
2022-08-22T19:47:09.071Z,100189.85
2022-08-22T19:52:30.356Z,100188.23
2022-08-22T19:57:52.819Z,100193.36
2022-08-22T20:03:04.231Z,100199.58
2022-08-22T20:08:19.082Z,100207.33
2022-08-22T20:13:25.507Z,100202.70
2022-08-22T20:19:05.063Z,100196.31
2022-08-22T20:24:15.566Z,100206.22
2022-08-22T20:29:20.009Z,100197.60
2022-08-22T20:34:30.433Z,100194.79
2022-08-22T20:39:50.610Z,100192.84
2022-08-22T20:45:12.158Z,100197.31
2022-08-22T20:50:20.445Z,100192.02
2022-08-22T20:55:27.260Z,100192.38
2022-08-22T21:00:42.429Z,100188.98
2022-08-22T21:05:46.399Z,100187.23
2022-08-22T21:11:24.653Z,100181.97
2022-08-22T21:16:31.628Z,100178.53
2022-08-22T21:21:35.118Z,100183.99
2022-08-22T21:26:52.082Z,100182.97
2022-08-22T21:31:59.318Z,100171.50
2022-08-22T21:37:14.333Z,100170.66
2022-08-22T21:42:27.445Z,100160.08
2022-08-22T21:47:37.103Z,100155.13
2022-08-22T21:52:56.270Z,100148.52
2022-08-22T21:58:05.331Z,100144.52
2022-08-22T22:03:08.243Z,100145.86
2022-08-22T22:08:11.725Z,100145.80
2022-08-22T22:13:15.721Z,100140.76
2022-08-22T22:18:25.063Z,100140.51
2022-08-22T22:23:28.632Z,100128.17
2022-08-22T22:28:36.617Z,100125.17
2022-08-22T22:33:41.724Z,100125.17
2022-08-22T22:38:45.494Z,100130.50
2022-08-22T22:43:48.426Z,100137.84
2022-08-22T22:48:51.098Z,100133.98
2022-08-22T22:53:56.095Z,100130.73
2022-08-22T22:59:12.810Z,100129.52
2022-08-22T23:04:16.565Z,100123.39
2022-08-22T23:09:19.261Z,100119.55
2022-08-22T23:14:22.514Z,100117.48
2022-08-22T23:19:26.799Z,100117.70
2022-08-22T23:24:31.245Z,100111.06
2022-08-22T23:29:34.737Z,100101.08
2022-08-22T23:34:46.295Z,100101.98
2022-08-22T23:39:49.989Z,100103.79
2022-08-22T23:44:52.758Z,100106.75
2022-08-22T23:49:55.499Z,100111.48
2022-08-22T23:54:58.185Z,100114.24
